Hauptseite
METAR-TAF:

METAR-TAF

Flughäfen :

Flughafen Graz

Graz, Österreich

Breite: 47-00N, Länge: 015-26E, Höhe: 340 m

Beobachtung

Neuester Wetterbericht von vor 31 Minuten, um 19:20 UTC
Wind 6 kt aus Nord
Temperatur 18°C
Luftfeuchtigkeit 68%
Luftdruck 1018 hPa
Sichtweite 10 km oder mehr
Durchbrochene Bewölkung in der Höhe von 4000 ft

METAR: LOWG 051920Z 35006KT 9999 BKN040 18/12 Q1018 NOSIG

Zeit: 21:51 (19:51 UTC)

Prognose

Neuester Wetterbericht von vor 2 Stunden und 36 Minuten, um 17:15 UTC
Gültige Prognose vom 05 um 18 UTC bis 06 um 18 UTC
Wind 5 kt aus Nord/Nordwest
Sichtweite 10 km oder mehr
Durchbrochene Bewölkung in der Höhe von 4000 ft

TAF: LOWG 051715Z 0518/0618 34005KT 9999 BKN040 TX25/0615Z TN16/0604Z

Wetterbeobachtungen und Prognosen von mehr als 4000 Flughäfen (METAR und TAF Bericht).

Die verfügbaren Stationen werden durch gelbe und rote Markierungen auf der Karte dargestellt.

Führen Sie die Maus auf sie, um den Namen der Station zu sehen.

Darauf klicken, um die Beobachtung von Wetterbeobachtungen und Prognosen zu sehen.

Um die Karte zu ändern : klicken Sie auf den grünen Tasten mit einem schwarzen Kreuz Zum Vergrößern, auf den grünen Button mit einem Gedankenstrich zu verkleinern, oder auf die grünen Pfeile für benachbarte Karten.


METAR-TAF: